Time;durP1;ratioP1;P1;durP2;ratioP2;P2;SDS_P1;SDS_P2;PMS_P1;PMS_P2;Temp;Humidity;BMP_temperature;BMP_pressure;BME280_temperature;BME280_humidity;BME280_pressure;Samples;Min_cycle;Max_cycle;Signal;HPM_P1;HPM_P2
2022/03/04 00:02:21;;;;;;;;;;;1.60;99.90;;;;;;4968124;28;19978;-79
2022/03/04 00:04:47;;;;;;;;;;;1.60;99.90;;;;;;4971711;28;19933;-79
2022/03/04 00:07:13;;;;;;;;;;;1.60;99.90;;;;;;4959025;28;20032;-78
2022/03/04 00:09:39;;;;;;;;;;;1.60;99.90;;;;;;4960405;28;20217;-79
2022/03/04 00:12:07;;;;;;;;;;;1.50;99.90;;;;;;4961085;28;19940;-79
2022/03/04 00:14:33;;;;;;;;;;;1.50;99.90;;;;;;4965712;28;20933;-78
2022/03/04 00:16:58;;;;;;;;;;;1.50;99.90;;;;;;4979343;28;19929;-79
2022/03/04 00:19:24;;;;;;;;;;;1.60;99.90;;;;;;4982308;28;19977;-79
2022/03/04 00:21:50;;;;;;;;;;;1.40;99.90;;;;;;4963019;28;20312;-79
2022/03/04 00:24:17;;;;;;;;;;;1.40;99.90;;;;;;4978814;28;19990;-79
2022/03/04 00:26:43;;;;;;;;;;;1.30;99.90;;;;;;4957888;28;19980;-79
2022/03/04 00:29:08;;;;;;;;;;;1.20;99.90;;;;;;4955946;28;19928;-79
2022/03/04 00:31:35;;;;;;;;;;;1.10;99.90;;;;;;4958351;28;20011;-79
2022/03/04 00:34:02;;;;;;;;;;;1.10;99.90;;;;;;4982593;28;19924;-79
2022/03/04 00:36:27;;;;;;;;;;;1.00;99.90;;;;;;4958137;28;20650;-79
2022/03/04 00:38:54;;;;;;;;;;;0.90;99.90;;;;;;4978866;28;19950;-79
2022/03/04 00:41:21;;;;;;;;;;;0.80;99.90;;;;;;4962548;28;19932;-79
2022/03/04 00:43:47;;;;;;;;;;;0.80;99.90;;;;;;4980688;28;20373;-79
2022/03/04 00:46:13;;;;;;;;;;;0.80;99.90;;;;;;4957642;28;20412;-79
2022/03/04 00:48:40;;;;;;;;;;;0.70;99.90;;;;;;4961175;28;19967;-79
2022/03/04 00:51:05;;;;;;;;;;;0.80;99.90;;;;;;4967199;28;19990;-79
2022/03/04 00:53:31;;;;;;;;;;;0.70;99.90;;;;;;4967786;28;19932;-79
2022/03/04 00:55:57;;;;;;;;;;;0.50;99.90;;;;;;4962614;28;19928;-79
2022/03/04 00:58:23;;;;;;;;;;;0.50;99.90;;;;;;4944302;28;19932;-79
2022/03/04 01:00:49;;;;;;;;;;;0.40;99.90;;;;;;4964533;28;19929;-79
2022/03/04 01:03:14;;;;;;;;;;;0.20;99.90;;;;;;4980639;28;19979;-79
2022/03/04 01:05:40;;;;;;;;;;;0.10;99.90;;;;;;4962617;28;19924;-79
2022/03/04 01:08:05;;;;;;;;;;;0.20;99.90;;;;;;4942129;28;19929;-79
2022/03/04 01:10:31;;;;;;;;;;;0.20;99.90;;;;;;4974314;28;20495;-79
2022/03/04 01:12:57;;;;;;;;;;;0.30;99.90;;;;;;4980335;28;19936;-79
2022/03/04 01:15:22;;;;;;;;;;;0.40;99.90;;;;;;4972884;28;20023;-79
2022/03/04 01:17:48;;;;;;;;;;;0.50;99.90;;;;;;4975058;28;19928;-79
2022/03/04 01:20:14;;;;;;;;;;;0.60;99.90;;;;;;4992066;28;20317;-79
2022/03/04 01:22:40;;;;;;;;;;;0.50;99.90;;;;;;4977721;28;19932;-79
2022/03/04 01:25:05;;;;;;;;;;;0.40;99.90;;;;;;4966715;28;19928;-79
2022/03/04 01:27:31;;;;;;;;;;;0.50;99.90;;;;;;4959910;28;19928;-79
2022/03/04 01:29:57;;;;;;;;;;;0.50;99.90;;;;;;4960609;28;19929;-79
2022/03/04 01:32:23;;;;;;;;;;;0.40;99.90;;;;;;4961927;28;19929;-79
2022/03/04 01:34:48;;;;;;;;;;;0.40;99.90;;;;;;4960997;28;19928;-79
2022/03/04 01:37:14;;;;;;;;;;;0.40;99.90;;;;;;4981668;28;19932;-79
2022/03/04 01:39:40;;;;;;;;;;;0.30;99.90;;;;;;4959396;28;19932;-79
2022/03/04 01:42:06;;;;;;;;;;;0.30;99.90;;;;;;4958888;28;20110;-79
2022/03/04 01:44:32;;;;;;;;;;;0.20;99.90;;;;;;4955249;28;20290;-79
2022/03/04 01:46:57;;;;;;;;;;;0.20;99.90;;;;;;4976768;28;19998;-79
2022/03/04 01:49:23;;;;;;;;;;;0.20;99.90;;;;;;4963341;28;20331;-79
2022/03/04 01:51:49;;;;;;;;;;;0.00;99.90;;;;;;4980867;28;20435;-79
2022/03/04 01:54:15;;;;;;;;;;;0.00;99.90;;;;;;4941381;28;20845;-79
2022/03/04 01:56:40;;;;;;;;;;;-0.10;99.90;;;;;;4977348;28;19981;-79
2022/03/04 01:59:06;;;;;;;;;;;0.00;99.90;;;;;;4960751;28;20042;-79
2022/03/04 02:01:33;;;;;;;;;;;0.20;99.90;;;;;;4939583;28;19940;-79
2022/03/04 02:03:59;;;;;;;;;;;0.10;99.90;;;;;;4959150;28;20582;-79
2022/03/04 02:06:25;;;;;;;;;;;0.00;99.90;;;;;;4971107;28;19950;-79
2022/03/04 02:08:50;;;;;;;;;;;-0.10;99.90;;;;;;4965639;28;19993;-79
2022/03/04 02:11:16;;;;;;;;;;;-0.20;99.90;;;;;;4961460;28;20225;-79
2022/03/04 02:13:43;;;;;;;;;;;-0.30;99.90;;;;;;4984356;28;19929;-79
2022/03/04 02:16:21;;;;;;;;;;;-0.40;99.90;;;;;;4981105;28;20332;-80
2022/03/04 02:18:47;;;;;;;;;;;-0.50;99.90;;;;;;4960512;28;19971;-79
2022/03/04 02:21:13;;;;;;;;;;;-0.30;99.90;;;;;;4965103;28;19943;-79
2022/03/04 02:23:39;;;;;;;;;;;-0.30;99.90;;;;;;4981989;28;19924;-79
2022/03/04 02:26:05;;;;;;;;;;;-0.10;99.90;;;;;;4946378;28;19939;-79
2022/03/04 02:28:31;;;;;;;;;;;-0.10;99.90;;;;;;4963327;28;20298;-79
2022/03/04 02:30:57;;;;;;;;;;;-0.20;99.90;;;;;;4944681;28;20378;-79
2022/03/04 02:33:22;;;;;;;;;;;-0.30;99.90;;;;;;4977006;28;20263;-79
2022/03/04 02:35:48;;;;;;;;;;;-0.20;99.90;;;;;;4979802;28;20286;-79
2022/03/04 02:38:14;;;;;;;;;;;-0.10;99.90;;;;;;4963254;28;19938;-80
2022/03/04 02:40:39;;;;;;;;;;;-0.30;99.90;;;;;;4946884;28;20011;-79
2022/03/04 02:43:06;;;;;;;;;;;-0.20;99.90;;;;;;4969313;28;19954;-79
2022/03/04 02:45:32;;;;;;;;;;;-0.30;99.90;;;;;;4966817;28;19928;-79
2022/03/04 02:47:58;;;;;;;;;;;-0.20;99.90;;;;;;4961669;28;20574;-80
2022/03/04 02:50:23;;;;;;;;;;;-0.20;99.90;;;;;;4958915;28;19924;-79
2022/03/04 02:52:49;;;;;;;;;;;-0.30;99.90;;;;;;4983819;28;19994;-79
2022/03/04 02:55:15;;;;;;;;;;;-0.30;99.90;;;;;;4966709;28;19972;-79
2022/03/04 02:57:44;;;;;;;;;;;-0.20;99.90;;;;;;4966718;28;19928;-79
2022/03/04 03:00:11;;;;;;;;;;;-0.40;99.90;;;;;;4967440;28;19994;-80
2022/03/04 03:02:37;;;;;;;;;;;-0.40;99.90;;;;;;4962081;28;20015;-80
2022/03/04 03:05:03;;;;;;;;;;;-0.40;99.90;;;;;;4962504;28;20679;-79
2022/03/04 03:07:29;;;;;;;;;;;-0.40;99.90;;;;;;4969869;28;19972;-80
2022/03/04 03:09:55;;;;;;;;;;;-0.30;99.90;;;;;;4983134;28;19932;-79
2022/03/04 03:12:20;;;;;;;;;;;-0.60;99.90;;;;;;4962659;28;19935;-79
2022/03/04 03:14:46;;;;;;;;;;;-0.50;99.90;;;;;;4961247;28;20901;-80
2022/03/04 03:17:12;;;;;;;;;;;-0.60;99.90;;;;;;4964618;28;20854;-79
2022/03/04 03:19:38;;;;;;;;;;;-0.60;99.90;;;;;;4986062;28;19928;-79
2022/03/04 03:22:04;;;;;;;;;;;-0.60;99.90;;;;;;4961310;28;20308;-79
2022/03/04 03:24:30;;;;;;;;;;;-0.70;99.90;;;;;;4968111;28;20491;-79
2022/03/04 03:26:55;;;;;;;;;;;-0.60;99.90;;;;;;4964830;28;19925;-80
2022/03/04 03:29:21;;;;;;;;;;;-0.60;99.90;;;;;;4961630;28;19936;-79
2022/03/04 03:31:46;;;;;;;;;;;-0.70;99.90;;;;;;4966773;28;20029;-79
2022/03/04 03:34:12;;;;;;;;;;;-0.80;99.90;;;;;;4963843;28;20348;-79
2022/03/04 03:36:38;;;;;;;;;;;-0.70;99.90;;;;;;4958593;28;19931;-79
2022/03/04 03:39:03;;;;;;;;;;;-0.60;99.90;;;;;;4963435;28;19933;-79
2022/03/04 03:41:29;;;;;;;;;;;-0.70;99.90;;;;;;4959853;28;20099;-79
2022/03/04 03:43:55;;;;;;;;;;;-0.70;99.90;;;;;;4969305;28;19971;-79
2022/03/04 03:46:20;;;;;;;;;;;-0.60;99.90;;;;;;4965229;28;19924;-79
2022/03/04 03:48:46;;;;;;;;;;;-0.60;99.90;;;;;;4943073;28;19934;-79
2022/03/04 03:51:12;;;;;;;;;;;-0.80;99.90;;;;;;4979204;28;20002;-79
2022/03/04 03:53:38;;;;;;;;;;;-0.80;99.90;;;;;;4965363;28;19998;-79
2022/03/04 03:56:03;;;;;;;;;;;-0.60;99.90;;;;;;4966032;28;21024;-79
2022/03/04 03:58:29;;;;;;;;;;;-0.50;99.90;;;;;;4969981;28;20341;-79
2022/03/04 04:00:55;;;;;;;;;;;-0.60;99.90;;;;;;4964984;28;21001;-79
2022/03/04 04:03:20;;;;;;;;;;;-0.60;99.90;;;;;;4978629;28;20733;-80
2022/03/04 04:05:46;;;;;;;;;;;-0.50;99.90;;;;;;4963266;28;19958;-79
2022/03/04 04:08:12;;;;;;;;;;;-0.50;99.90;;;;;;4979302;28;19928;-79
2022/03/04 04:10:37;;;;;;;;;;;-0.40;99.90;;;;;;4966778;28;19971;-79
2022/03/04 04:13:03;;;;;;;;;;;-0.50;99.90;;;;;;4961510;28;19924;-79
2022/03/04 04:15:29;;;;;;;;;;;-0.60;99.90;;;;;;4963821;28;20434;-79
2022/03/04 04:17:54;;;;;;;;;;;-0.60;99.90;;;;;;4963964;28;20028;-80
2022/03/04 04:20:20;;;;;;;;;;;-0.50;99.90;;;;;;4960558;28;19958;-79
2022/03/04 04:22:46;;;;;;;;;;;-0.60;99.90;;;;;;4960772;28;19932;-79
2022/03/04 04:25:12;;;;;;;;;;;-0.60;99.90;;;;;;4967115;28;20030;-79
2022/03/04 04:27:37;;;;;;;;;;;-0.60;99.90;;;;;;4978660;28;20807;-80
2022/03/04 04:30:03;;;;;;;;;;;-0.50;99.90;;;;;;4981958;28;20714;-79
2022/03/04 04:32:29;;;;;;;;;;;-0.60;99.90;;;;;;4960919;28;20258;-80
2022/03/04 04:34:54;;;;;;;;;;;-0.60;99.90;;;;;;4967049;28;19928;-79
2022/03/04 04:37:20;;;;;;;;;;;-0.60;99.90;;;;;;4963046;28;20007;-79
2022/03/04 04:39:46;;;;;;;;;;;-0.60;99.90;;;;;;4945093;28;19928;-79
2022/03/04 04:42:11;;;;;;;;;;;-0.60;99.90;;;;;;4966736;28;19964;-79
2022/03/04 04:44:38;;;;;;;;;;;-0.50;99.90;;;;;;4982299;28;19951;-80
2022/03/04 04:47:03;;;;;;;;;;;-0.60;99.90;;;;;;4959282;28;19967;-79
2022/03/04 04:49:29;;;;;;;;;;;-0.50;99.90;;;;;;4957315;28;19929;-79
2022/03/04 04:51:55;;;;;;;;;;;-0.50;99.90;;;;;;4966986;28;19940;-79
2022/03/04 04:54:21;;;;;;;;;;;-0.50;99.90;;;;;;4964956;28;19978;-80
2022/03/04 04:56:46;;;;;;;;;;;-0.30;99.90;;;;;;4961805;28;19928;-79
2022/03/04 04:59:12;;;;;;;;;;;-0.40;99.90;;;;;;4963417;28;19928;-80
2022/03/04 05:01:37;;;;;;;;;;;-0.50;99.90;;;;;;4947347;28;20178;-79
2022/03/04 05:04:03;;;;;;;;;;;-0.30;99.90;;;;;;4958134;28;19928;-79
2022/03/04 05:06:29;;;;;;;;;;;-0.40;99.90;;;;;;4960300;28;20259;-79
2022/03/04 05:08:54;;;;;;;;;;;-0.30;99.90;;;;;;4965066;28;19932;-79
2022/03/04 05:11:20;;;;;;;;;;;-0.30;99.90;;;;;;4980715;28;20805;-80
2022/03/04 05:13:47;;;;;;;;;;;-0.30;99.90;;;;;;4958010;28;19939;-79
2022/03/04 05:16:13;;;;;;;;;;;-0.40;99.90;;;;;;4982200;28;19928;-79
2022/03/04 05:18:38;;;;;;;;;;;-0.20;99.90;;;;;;4962478;28;19928;-79
2022/03/04 05:21:04;;;;;;;;;;;-0.30;99.90;;;;;;4975711;28;20751;-79
2022/03/04 05:26:14;;;;;;;;;;;-0.20;99.90;;;;;;4982264;28;19924;-79
2022/03/04 05:28:40;;;;;;;;;;;-0.20;99.90;;;;;;4981848;28;19929;-79
2022/03/04 05:31:05;;;;;;;;;;;-0.30;99.90;;;;;;4960842;28;20637;-80
2022/03/04 05:33:31;;;;;;;;;;;-0.40;99.90;;;;;;4961735;28;20522;-80
2022/03/04 05:35:56;;;;;;;;;;;-0.20;99.90;;;;;;4939400;28;19956;-80
2022/03/04 05:38:22;;;;;;;;;;;-0.20;99.90;;;;;;4970511;28;20808;-79
2022/03/04 05:40:48;;;;;;;;;;;-0.30;99.90;;;;;;4958964;28;19935;-80
2022/03/04 05:43:13;;;;;;;;;;;-0.30;99.90;;;;;;4953284;28;20321;-79
2022/03/04 05:45:41;;;;;;;;;;;-0.30;99.90;;;;;;4963170;28;22221;-80
2022/03/04 05:48:07;;;;;;;;;;;-0.30;99.90;;;;;;4967470;28;19939;-79
2022/03/04 05:50:33;;;;;;;;;;;-0.20;99.90;;;;;;4935327;28;20816;-80
2022/03/04 05:52:58;;;;;;;;;;;-0.20;99.90;;;;;;4933632;28;19933;-80
2022/03/04 05:55:24;;;;;;;;;;;-0.30;99.90;;;;;;4971117;28;19938;-80
2022/03/04 05:57:49;;;;;;;;;;;-0.10;99.90;;;;;;4961898;28;19939;-80
2022/03/04 06:00:15;;;;;;;;;;;-0.20;99.90;;;;;;4952096;28;20749;-80
2022/03/04 06:02:41;;;;;;;;;;;-0.20;99.90;;;;;;4952993;28;20182;-80
2022/03/04 06:05:06;;;;;;;;;;;-0.20;99.90;;;;;;4948580;28;19928;-80
2022/03/04 06:07:35;;;;;;;;;;;-0.30;99.90;;;;;;4953001;28;19978;-79
2022/03/04 06:10:02;;;;;;;;;;;-0.30;99.90;;;;;;4971806;28;19928;-79
2022/03/04 06:12:28;;;;;;;;;;;-0.20;99.90;;;;;;4938660;28;20811;-79
2022/03/04 06:14:53;;;;;;;;;;;-0.30;99.90;;;;;;4970310;28;19932;-79
2022/03/04 06:17:19;;;;;;;;;;;-0.20;99.90;;;;;;4980088;28;19932;-80
2022/03/04 06:19:44;;;;;;;;;;;-0.30;99.90;;;;;;4980599;28;20713;-80
2022/03/04 06:22:10;;;;;;;;;;;-0.30;99.90;;;;;;4959918;28;20808;-80
2022/03/04 06:24:36;;;;;;;;;;;-0.30;99.90;;;;;;4953895;28;20442;-81
2022/03/04 06:27:02;;;;;;;;;;;-0.30;99.90;;;;;;4962140;28;19936;-80
2022/03/04 06:29:28;;;;;;;;;;;-0.40;99.90;;;;;;4975701;28;20162;-81
2022/03/04 06:31:53;;;;;;;;;;;-0.30;99.90;;;;;;4958598;28;19928;-81
2022/03/04 06:34:19;;;;;;;;;;;-0.20;99.90;;;;;;4973522;28;19935;-80
2022/03/04 06:36:45;;;;;;;;;;;-0.20;99.90;;;;;;4955738;28;20588;-81
2022/03/04 06:39:11;;;;;;;;;;;-0.20;99.90;;;;;;4951400;28;19929;-80
2022/03/04 06:41:37;;;;;;;;;;;-0.30;99.90;;;;;;4943113;28;20627;-80
2022/03/04 06:44:03;;;;;;;;;;;-0.40;99.90;;;;;;4956742;28;19939;-80
2022/03/04 06:46:29;;;;;;;;;;;-0.30;99.90;;;;;;4976082;28;20495;-80
2022/03/04 06:48:55;;;;;;;;;;;-0.40;99.90;;;;;;4961327;28;20456;-80
2022/03/04 06:51:21;;;;;;;;;;;-0.30;99.90;;;;;;4960869;28;20771;-79
2022/03/04 06:53:46;;;;;;;;;;;-0.20;99.90;;;;;;4971950;28;20322;-80
2022/03/04 06:56:15;;;;;;;;;;;-0.30;99.90;;;;;;4959714;28;19929;-79
2022/03/04 06:58:41;;;;;;;;;;;-0.40;99.90;;;;;;4957226;28;19982;-81
2022/03/04 07:01:07;;;;;;;;;;;-0.40;99.90;;;;;;4977606;28;19932;-80
2022/03/04 07:03:33;;;;;;;;;;;-0.40;99.90;;;;;;4958656;28;19981;-80
2022/03/04 07:05:58;;;;;;;;;;;-0.30;99.90;;;;;;4978254;28;19928;-80
2022/03/04 07:08:24;;;;;;;;;;;-0.30;99.90;;;;;;4958014;28;19943;-80
2022/03/04 07:10:50;;;;;;;;;;;-0.20;99.90;;;;;;4959564;28;20321;-80
2022/03/04 07:13:16;;;;;;;;;;;-0.20;99.90;;;;;;4954730;28;19928;-80
2022/03/04 07:15:42;;;;;;;;;;;-0.20;99.90;;;;;;4959108;28;19928;-80
2022/03/04 07:18:08;;;;;;;;;;;-0.10;99.90;;;;;;4958051;28;19985;-80
2022/03/04 07:20:34;;;;;;;;;;;-0.10;99.90;;;;;;4958985;28;20362;-80
2022/03/04 07:23:00;;;;;;;;;;;-0.10;99.90;;;;;;4961543;28;19936;-80
2022/03/04 07:25:26;;;;;;;;;;;-0.20;99.90;;;;;;4935575;28;19928;-80
2022/03/04 07:27:51;;;;;;;;;;;-0.20;99.90;;;;;;4971972;28;20023;-80
2022/03/04 07:30:17;;;;;;;;;;;-0.30;99.90;;;;;;4975974;28;20082;-80
2022/03/04 07:32:44;;;;;;;;;;;-0.30;99.90;;;;;;4955646;28;20006;-80
2022/03/04 07:35:10;;;;;;;;;;;-0.20;99.90;;;;;;4942505;28;19933;-79
2022/03/04 07:37:36;;;;;;;;;;;-0.10;99.90;;;;;;4981160;28;20128;-79
2022/03/04 07:40:02;;;;;;;;;;;0.00;99.90;;;;;;4983166;28;20173;-80
2022/03/04 07:42:28;;;;;;;;;;;0.00;99.90;;;;;;4972148;28;19928;-80
2022/03/04 07:44:54;;;;;;;;;;;-0.20;99.90;;;;;;4977940;28;19939;-81
2022/03/04 07:47:22;;;;;;;;;;;0.00;99.90;;;;;;4978709;28;19928;-80
2022/03/04 07:49:48;;;;;;;;;;;0.10;99.90;;;;;;4982575;28;19932;-79
2022/03/04 07:52:14;;;;;;;;;;;0.10;99.90;;;;;;4977492;28;19932;-79
2022/03/04 07:54:40;;;;;;;;;;;0.20;99.90;;;;;;4981165;28;19929;-79
2022/03/04 07:57:06;;;;;;;;;;;0.10;99.90;;;;;;4985194;28;20369;-80
2022/03/04 07:59:32;;;;;;;;;;;0.20;99.90;;;;;;4959242;28;19936;-81
2022/03/04 08:01:57;;;;;;;;;;;0.40;99.90;;;;;;4959771;28;20725;-80
2022/03/04 08:04:23;;;;;;;;;;;0.50;99.90;;;;;;4959919;28;20320;-80
2022/03/04 08:06:49;;;;;;;;;;;0.20;99.90;;;;;;4957346;28;20923;-80
2022/03/04 08:09:15;;;;;;;;;;;0.30;99.90;;;;;;4967403;28;19937;-81
2022/03/04 08:11:40;;;;;;;;;;;0.20;99.90;;;;;;4963305;28;19928;-80
2022/03/04 08:14:06;;;;;;;;;;;0.40;99.90;;;;;;4975448;28;20554;-81
2022/03/04 08:16:33;;;;;;;;;;;0.30;99.90;;;;;;4956726;28;19928;-81
2022/03/04 08:18:58;;;;;;;;;;;0.40;99.90;;;;;;4980028;28;20122;-81
2022/03/04 08:21:29;;;;;;;;;;;0.50;99.90;;;;;;4953479;28;19935;-80
2022/03/04 08:23:57;;;;;;;;;;;0.40;99.90;;;;;;4991871;28;19936;-81
2022/03/04 08:26:23;;;;;;;;;;;0.20;99.90;;;;;;4965310;28;19932;-80
2022/03/04 08:28:49;;;;;;;;;;;0.20;99.90;;;;;;4980448;28;20277;-80
2022/03/04 08:31:15;;;;;;;;;;;0.20;99.90;;;;;;4959786;28;20482;-80
2022/03/04 08:33:43;;;;;;;;;;;0.20;99.90;;;;;;4977206;28;19928;-79
2022/03/04 08:36:09;;;;;;;;;;;0.10;99.90;;;;;;4958586;28;19928;-80
2022/03/04 08:38:35;;;;;;;;;;;0.20;99.90;;;;;;4961460;28;19933;-79
2022/03/04 08:41:00;;;;;;;;;;;0.10;99.90;;;;;;4968089;28;19928;-79
2022/03/04 08:43:26;;;;;;;;;;;0.40;99.90;;;;;;4977323;28;20290;-80
2022/03/04 08:45:52;;;;;;;;;;;0.40;99.90;;;;;;4964035;28;19929;-80
2022/03/04 08:48:18;;;;;;;;;;;0.50;99.90;;;;;;4976202;28;19936;-79
2022/03/04 08:50:44;;;;;;;;;;;0.40;99.90;;;;;;4963046;28;20300;-79
2022/03/04 08:53:09;;;;;;;;;;;0.60;99.90;;;;;;4976693;28;19932;-80
2022/03/04 08:55:35;;;;;;;;;;;0.80;99.90;;;;;;4973588;28;20978;-80
2022/03/04 08:58:01;;;;;;;;;;;1.00;99.90;;;;;;4957184;28;20679;-80
2022/03/04 09:00:28;;;;;;;;;;;0.70;99.90;;;;;;4955837;28;19928;-80
2022/03/04 09:02:54;;;;;;;;;;;0.90;99.90;;;;;;4975601;28;20318;-80
2022/03/04 09:05:19;;;;;;;;;;;1.00;99.90;;;;;;4953346;28;20545;-80
2022/03/04 09:07:45;;;;;;;;;;;1.10;99.90;;;;;;4956118;28;19936;-80
2022/03/04 09:10:11;;;;;;;;;;;1.30;99.90;;;;;;4951546;28;19928;-79
2022/03/04 09:12:37;;;;;;;;;;;1.30;99.90;;;;;;4957603;28;19980;-80
2022/03/04 09:15:04;;;;;;;;;;;1.40;99.90;;;;;;4944870;28;19975;-80
2022/03/04 09:17:30;;;;;;;;;;;1.00;99.90;;;;;;4959904;28;19932;-80
2022/03/04 09:19:56;;;;;;;;;;;1.10;99.90;;;;;;4941143;28;20341;-80
2022/03/04 09:22:22;;;;;;;;;;;0.70;99.90;;;;;;4972911;28;19925;-80
2022/03/04 09:24:47;;;;;;;;;;;0.70;99.90;;;;;;4959304;28;19924;-80
2022/03/04 09:27:13;;;;;;;;;;;0.70;99.90;;;;;;4956438;28;20282;-81
2022/03/04 09:29:39;;;;;;;;;;;1.10;99.90;;;;;;4940058;28;20678;-79
2022/03/04 09:32:05;;;;;;;;;;;1.20;99.90;;;;;;4960194;28;19932;-80
2022/03/04 09:34:30;;;;;;;;;;;1.50;99.90;;;;;;4978693;28;20295;-79
2022/03/04 09:36:56;;;;;;;;;;;1.70;99.90;;;;;;4956279;28;20337;-80
2022/03/04 09:39:22;;;;;;;;;;;1.10;99.90;;;;;;4972945;28;20546;-80
2022/03/04 09:41:48;;;;;;;;;;;1.30;99.90;;;;;;4978303;28;19929;-79
2022/03/04 09:44:15;;;;;;;;;;;1.10;99.90;;;;;;4973704;28;19997;-79
2022/03/04 09:46:41;;;;;;;;;;;1.30;99.90;;;;;;4962053;28;20249;-80
2022/03/04 09:49:10;;;;;;;;;;;1.30;99.90;;;;;;4977613;28;19928;-80
2022/03/04 09:51:36;;;;;;;;;;;1.70;99.90;;;;;;4956325;28;20088;-80
2022/03/04 09:54:02;;;;;;;;;;;1.80;99.90;;;;;;4955122;28;19924;-82
2022/03/04 09:56:27;;;;;;;;;;;2.40;99.90;;;;;;4966680;28;20746;-80
2022/03/04 09:58:53;;;;;;;;;;;2.00;99.90;;;;;;4958443;28;19953;-82
2022/03/04 10:01:19;;;;;;;;;;;1.90;99.90;;;;;;4957761;28;20805;-81
2022/03/04 10:03:46;;;;;;;;;;;1.30;99.90;;;;;;4957047;28;20290;-80
2022/03/04 10:06:12;;;;;;;;;;;1.40;99.90;;;;;;4946530;28;19928;-80
2022/03/04 10:08:39;;;;;;;;;;;1.60;99.90;;;;;;4961658;28;20495;-81
2022/03/04 10:11:04;;;;;;;;;;;1.90;99.90;;;;;;4953757;28;19929;-81
2022/03/04 10:13:39;;;;;;;;;;;2.30;99.90;;;;;;4961028;28;20006;-80
2022/03/04 10:16:05;;;;;;;;;;;2.50;99.90;;;;;;4973961;28;20898;-81
2022/03/04 10:18:32;;;;;;;;;;;2.50;99.90;;;;;;4974216;28;20352;-80
2022/03/04 10:20:57;;;;;;;;;;;2.90;99.90;;;;;;4955916;28;20451;-81
2022/03/04 10:23:25;;;;;;;;;;;3.40;99.90;;;;;;4957915;28;19928;-81
2022/03/04 10:25:52;;;;;;;;;;;3.40;99.90;;;;;;4957040;28;19928;-81
2022/03/04 10:28:20;;;;;;;;;;;3.00;99.90;;;;;;4959403;28;20328;-80
2022/03/04 10:30:48;;;;;;;;;;;3.30;99.90;;;;;;4940510;28;20645;-80
2022/03/04 10:33:16;;;;;;;;;;;3.50;99.90;;;;;;4952698;28;20015;-80
2022/03/04 10:35:42;;;;;;;;;;;3.90;99.90;;;;;;4940623;28;19967;-81
2022/03/04 10:38:22;;;;;;;;;;;3.50;99.90;;;;;;4958996;28;20299;-80
2022/03/04 10:40:48;;;;;;;;;;;4.00;99.90;;;;;;4962592;28;20482;-79
2022/03/04 10:43:16;;;;;;;;;;;3.80;99.90;;;;;;4979469;28;19932;-80
2022/03/04 10:45:45;;;;;;;;;;;3.20;99.90;;;;;;4957312;28;20254;-80
2022/03/04 10:48:14;;;;;;;;;;;3.50;99.90;;;;;;4959320;28;20187;-80
2022/03/04 10:50:42;;;;;;;;;;;3.80;99.90;;;;;;4958969;28;19928;-80
2022/03/04 10:53:12;;;;;;;;;;;4.10;99.90;;;;;;4957888;28;20113;-80
2022/03/04 10:55:46;;;;;;;;;;;4.50;99.90;;;;;;4972965;28;20587;-81
2022/03/04 10:58:14;;;;;;;;;;;4.70;99.90;;;;;;4953751;28;19938;-79
2022/03/04 11:00:41;;;;;;;;;;;4.30;99.90;;;;;;4956781;28;19929;-80
2022/03/04 11:03:07;;;;;;;;;;;4.30;99.90;;;;;;4976976;28;20786;-80
2022/03/04 11:05:34;;;;;;;;;;;4.50;99.90;;;;;;4944567;28;19935;-80
2022/03/04 11:08:01;;;;;;;;;;;4.50;99.90;;;;;;4960818;28;19985;-80
2022/03/04 11:10:27;;;;;;;;;;;5.20;99.90;;;;;;4978989;28;19978;-79
2022/03/04 11:12:55;;;;;;;;;;;4.60;99.90;;;;;;4931235;28;19928;-78
2022/03/04 11:15:22;;;;;;;;;;;4.80;99.90;;;;;;4975894;28;20029;-79
2022/03/04 11:17:48;;;;;;;;;;;5.10;99.90;;;;;;4962728;28;20363;-79
2022/03/04 11:20:15;;;;;;;;;;;5.00;99.90;;;;;;4979617;28;19928;-80
2022/03/04 11:22:41;;;;;;;;;;;5.20;99.90;;;;;;4943196;28;20278;-80
2022/03/04 11:25:10;;;;;;;;;;;5.30;99.90;;;;;;4957812;28;19928;-79
2022/03/04 11:27:46;;;;;;;;;;;5.30;99.90;;;;;;4977667;28;19939;-79
2022/03/04 11:30:31;;;;;;;;;;;5.80;99.90;;;;;;4960259;28;19981;-79
2022/03/04 11:33:03;;;;;;;;;;;6.00;99.90;;;;;;4957066;28;19928;-80
2022/03/04 11:35:35;;;;;;;;;;;5.80;99.90;;;;;;4977492;28;20092;-80
2022/03/04 11:38:01;;;;;;;;;;;5.20;99.90;;;;;;4961728;28;19928;-80
2022/03/04 11:40:33;;;;;;;;;;;5.20;99.90;;;;;;4956688;28;19995;-79
2022/03/04 11:42:58;;;;;;;;;;;5.70;99.90;;;;;;4960664;28;19928;-80
2022/03/04 11:45:32;;;;;;;;;;;6.00;99.90;;;;;;4959212;28;20410;-79
2022/03/04 11:48:05;;;;;;;;;;;6.10;99.90;;;;;;4946854;28;19929;-80
2022/03/04 11:50:35;;;;;;;;;;;6.00;99.90;;;;;;4959822;28;19933;-80
2022/03/04 11:53:12;;;;;;;;;;;5.80;99.90;;;;;;4962931;28;20497;-80
2022/03/04 11:55:38;;;;;;;;;;;6.00;99.90;;;;;;4959340;28;19946;-81
2022/03/04 11:58:04;;;;;;;;;;;5.90;99.90;;;;;;4980080;28;19928;-80
2022/03/04 12:00:30;;;;;;;;;;;6.60;99.90;;;;;;4942998;28;19931;-79
2022/03/04 12:02:57;;;;;;;;;;;6.80;99.90;;;;;;4956667;28;20408;-79
2022/03/04 12:05:25;;;;;;;;;;;7.00;99.90;;;;;;4957240;28;20001;-80
2022/03/04 12:07:54;;;;;;;;;;;6.80;99.90;;;;;;4962560;28;20393;-79
2022/03/04 12:10:21;;;;;;;;;;;6.60;99.90;;;;;;4961940;28;20337;-80
2022/03/04 12:13:00;;;;;;;;;;;7.00;99.90;;;;;;4980211;28;19932;-80
2022/03/04 12:15:28;;;;;;;;;;;6.60;99.90;;;;;;4976548;28;20801;-79
2022/03/04 12:17:59;;;;;;;;;;;6.80;99.90;;;;;;4962112;28;19928;-81
2022/03/04 12:20:28;;;;;;;;;;;6.70;99.90;;;;;;4959108;28;20489;-80
2022/03/04 12:22:58;;;;;;;;;;;7.50;99.90;;;;;;4979561;28;19951;-82
2022/03/04 12:25:42;;;;;;;;;;;7.50;99.90;;;;;;4958806;28;20794;-80
2022/03/04 12:28:15;;;;;;;;;;;7.50;99.90;;;;;;4960395;28;19982;-79
2022/03/04 12:30:41;;;;;;;;;;;7.40;99.90;;;;;;4944371;28;20034;-79
2022/03/04 12:33:07;;;;;;;;;;;7.50;99.90;;;;;;4980327;28;20136;-79
2022/03/04 12:35:33;;;;;;;;;;;7.70;99.90;;;;;;4958299;28;19924;-80
2022/03/04 12:38:02;;;;;;;;;;;7.30;99.90;;;;;;4963421;28;21028;-81
2022/03/04 12:40:28;;;;;;;;;;;7.20;99.90;;;;;;4958321;28;19929;-81
2022/03/04 12:42:55;;;;;;;;;;;7.20;99.90;;;;;;4940686;28;20921;-81
2022/03/04 12:45:20;;;;;;;;;;;7.40;99.90;;;;;;4927883;28;20370;-81
2022/03/04 12:47:46;;;;;;;;;;;7.40;99.90;;;;;;4964048;28;19971;-79
2022/03/04 12:50:12;;;;;;;;;;;7.80;99.90;;;;;;4962848;28;20275;-81
2022/03/04 12:52:39;;;;;;;;;;;8.10;99.90;;;;;;4925122;28;20324;-79
2022/03/04 12:55:05;;;;;;;;;;;8.50;99.90;;;;;;4929853;28;19986;-80
2022/03/04 12:57:31;;;;;;;;;;;7.80;97.90;;;;;;4961220;28;20296;-79
2022/03/04 12:59:58;;;;;;;;;;;8.00;99.90;;;;;;4959981;28;19928;-79
2022/03/04 13:02:32;;;;;;;;;;;7.80;99.40;;;;;;4965148;28;20744;-80
2022/03/04 13:04:58;;;;;;;;;;;8.10;99.90;;;;;;4958067;28;19955;-80
2022/03/04 13:07:24;;;;;;;;;;;8.30;99.90;;;;;;4980511;28;19982;-79
2022/03/04 13:09:51;;;;;;;;;;;8.60;99.90;;;;;;4966414;28;19932;-82
2022/03/04 13:12:20;;;;;;;;;;;8.10;97.60;;;;;;4961331;28;20317;-81
2022/03/04 13:14:45;;;;;;;;;;;8.10;99.90;;;;;;4978184;28;19994;-82
2022/03/04 13:17:12;;;;;;;;;;;8.70;99.90;;;;;;4960949;28;20640;-80
2022/03/04 13:19:39;;;;;;;;;;;8.50;98.00;;;;;;4958108;28;20300;-79
2022/03/04 13:22:08;;;;;;;;;;;8.30;98.90;;;;;;4960619;28;19924;-80
2022/03/04 13:24:41;;;;;;;;;;;8.10;98.20;;;;;;4941092;28;20504;-79
2022/03/04 13:27:07;;;;;;;;;;;8.30;99.90;;;;;;4979507;28;20384;-81
2022/03/04 13:29:43;;;;;;;;;;;8.60;99.90;;;;;;4976181;28;19928;-82
2022/03/04 13:32:16;;;;;;;;;;;8.20;99.90;;;;;;4955267;28;20443;-79
2022/03/04 13:34:43;;;;;;;;;;;8.70;99.90;;;;;;4977937;28;19979;-79
2022/03/04 13:37:14;;;;;;;;;;;8.60;99.90;;;;;;4958107;28;20129;-80
2022/03/04 13:39:40;;;;;;;;;;;8.30;91.00;;;;;;4939085;28;19932;-80
2022/03/04 13:42:12;;;;;;;;;;;8.60;99.00;;;;;;4962655;28;19939;-80
2022/03/04 13:44:47;;;;;;;;;;;8.70;91.70;;;;;;4959477;28;19939;-80
2022/03/04 13:47:12;;;;;;;;;;;8.90;95.00;;;;;;4959326;28;20642;-79
2022/03/04 13:49:41;;;;;;;;;;;8.90;99.30;;;;;;4975094;28;19928;-80
2022/03/04 13:52:07;;;;;;;;;;;8.50;91.40;;;;;;4957999;28;19947;-79
2022/03/04 13:54:56;;;;;;;;;;;8.60;94.40;;;;;;4974150;28;19944;-81
2022/03/04 13:57:26;;;;;;;;;;;8.30;92.80;;;;;;4975984;28;19932;-79
2022/03/04 13:59:51;;;;;;;;;;;8.60;93.00;;;;;;4957957;28;21297;-80
2022/03/04 14:02:17;;;;;;;;;;;8.60;97.50;;;;;;4975562;28;20082;-79
2022/03/04 14:04:57;;;;;;;;;;;8.50;90.80;;;;;;4972615;28;20011;-81
2022/03/04 14:07:23;;;;;;;;;;;8.70;91.50;;;;;;4951036;28;20018;-81
2022/03/04 14:09:49;;;;;;;;;;;8.50;91.20;;;;;;4976622;28;20046;-81
2022/03/04 14:12:15;;;;;;;;;;;8.50;95.60;;;;;;4965991;28;19955;-80
2022/03/04 14:14:41;;;;;;;;;;;8.80;95.40;;;;;;4954072;28;19928;-79
2022/03/04 14:17:07;;;;;;;;;;;9.00;97.80;;;;;;4947139;28;20009;-80
2022/03/04 14:19:33;;;;;;;;;;;8.70;89.90;;;;;;4972330;28;19962;-81
2022/03/04 14:21:59;;;;;;;;;;;9.00;92.10;;;;;;4954220;28;20590;-83
2022/03/04 14:24:24;;;;;;;;;;;9.00;99.90;;;;;;4955125;28;19935;-79
2022/03/04 14:26:50;;;;;;;;;;;9.10;96.80;;;;;;4951708;28;19936;-79